sensor_id;sensor_type;location;lat;lon;timestamp;P1;durP1;ratioP1;P2;durP2;ratioP2
66402;SDS011;53212;52.112;5.144;2022-08-30T00:00:16;3.50;;;2.50;;
66402;SDS011;53212;52.112;5.144;2022-08-30T00:03:03;3.30;;;2.10;;
66402;SDS011;53212;52.112;5.144;2022-08-30T00:05:31;7.80;;;2.70;;
66402;SDS011;53212;52.112;5.144;2022-08-30T00:07:57;5.40;;;2.80;;
66402;SDS011;53212;52.112;5.144;2022-08-30T00:10:24;4.50;;;2.90;;
66402;SDS011;53212;52.112;5.144;2022-08-30T00:12:51;9.00;;;2.80;;
66402;SDS011;53212;52.112;5.144;2022-08-30T00:15:17;4.70;;;2.80;;
66402;SDS011;53212;52.112;5.144;2022-08-30T00:17:43;5.70;;;2.60;;
66402;SDS011;53212;52.112;5.144;2022-08-30T00:20:12;5.70;;;2.80;;
66402;SDS011;53212;52.112;5.144;2022-08-30T00:22:42;5.70;;;3.10;;
66402;SDS011;53212;52.112;5.144;2022-08-30T00:25:09;5.70;;;2.70;;
66402;SDS011;53212;52.112;5.144;2022-08-30T00:27:36;3.50;;;2.60;;
66402;SDS011;53212;52.112;5.144;2022-08-30T00:30:03;6.20;;;3.10;;
66402;SDS011;53212;52.112;5.144;2022-08-30T00:32:30;5.20;;;3.10;;
66402;SDS011;53212;52.112;5.144;2022-08-30T00:34:56;6.20;;;2.90;;
66402;SDS011;53212;52.112;5.144;2022-08-30T00:37:22;4.30;;;2.50;;
66402;SDS011;53212;52.112;5.144;2022-08-30T00:39:48;4.70;;;3.00;;
66402;SDS011;53212;52.112;5.144;2022-08-30T00:42:15;7.60;;;3.10;;
66402;SDS011;53212;52.112;5.144;2022-08-30T00:44:42;5.20;;;2.90;;
66402;SDS011;53212;52.112;5.144;2022-08-30T00:47:08;4.80;;;2.80;;
66402;SDS011;53212;52.112;5.144;2022-08-30T00:49:36;5.20;;;3.00;;
66402;SDS011;53212;52.112;5.144;2022-08-30T00:52:05;3.50;;;2.80;;
66402;SDS011;53212;52.112;5.144;2022-08-30T00:54:31;4.70;;;3.20;;
66402;SDS011;53212;52.112;5.144;2022-08-30T00:57:02;6.80;;;3.40;;
66402;SDS011;53212;52.112;5.144;2022-08-30T00:59:28;4.60;;;3.00;;
66402;SDS011;53212;52.112;5.144;2022-08-30T01:01:55;6.20;;;3.30;;
66402;SDS011;53212;52.112;5.144;2022-08-30T01:04:24;4.10;;;3.00;;
66402;SDS011;53212;52.112;5.144;2022-08-30T01:06:51;4.30;;;3.30;;
66402;SDS011;53212;52.112;5.144;2022-08-30T01:09:18;5.30;;;3.60;;
66402;SDS011;53212;52.112;5.144;2022-08-30T01:11:44;6.00;;;3.30;;
66402;SDS011;53212;52.112;5.144;2022-08-30T01:14:10;4.50;;;3.30;;
66402;SDS011;53212;52.112;5.144;2022-08-30T01:16:37;5.20;;;3.10;;
66402;SDS011;53212;52.112;5.144;2022-08-30T01:19:10;7.70;;;3.00;;
66402;SDS011;53212;52.112;5.144;2022-08-30T01:21:51;6.00;;;3.60;;
66402;SDS011;53212;52.112;5.144;2022-08-30T01:24:21;7.50;;;3.80;;
66402;SDS011;53212;52.112;5.144;2022-08-30T01:26:47;4.80;;;3.20;;
66402;SDS011;53212;52.112;5.144;2022-08-30T01:29:16;6.40;;;3.40;;
66402;SDS011;53212;52.112;5.144;2022-08-30T01:31:47;7.60;;;3.40;;
66402;SDS011;53212;52.112;5.144;2022-08-30T01:34:13;5.10;;;3.60;;
66402;SDS011;53212;52.112;5.144;2022-08-30T01:36:39;7.40;;;3.50;;
66402;SDS011;53212;52.112;5.144;2022-08-30T01:39:08;4.10;;;3.50;;
66402;SDS011;53212;52.112;5.144;2022-08-30T01:41:35;5.20;;;3.40;;
66402;SDS011;53212;52.112;5.144;2022-08-30T01:44:05;6.20;;;4.00;;
66402;SDS011;53212;52.112;5.144;2022-08-30T01:49:02;6.70;;;3.80;;
66402;SDS011;53212;52.112;5.144;2022-08-30T01:51:30;6.50;;;3.80;;
66402;SDS011;53212;52.112;5.144;2022-08-30T01:53:57;6.00;;;4.40;;
66402;SDS011;53212;52.112;5.144;2022-08-30T01:56:24;5.60;;;3.50;;
66402;SDS011;53212;52.112;5.144;2022-08-30T01:58:53;5.10;;;3.80;;
66402;SDS011;53212;52.112;5.144;2022-08-30T02:01:22;9.20;;;4.40;;
66402;SDS011;53212;52.112;5.144;2022-08-30T02:03:49;4.80;;;4.30;;
66402;SDS011;53212;52.112;5.144;2022-08-30T02:06:17;4.90;;;3.70;;
66402;SDS011;53212;52.112;5.144;2022-08-30T02:08:44;4.70;;;4.10;;
66402;SDS011;53212;52.112;5.144;2022-08-30T02:11:10;7.20;;;4.60;;
66402;SDS011;53212;52.112;5.144;2022-08-30T02:13:37;6.10;;;4.40;;
66402;SDS011;53212;52.112;5.144;2022-08-30T02:16:05;7.20;;;4.50;;
66402;SDS011;53212;52.112;5.144;2022-08-30T02:18:33;9.40;;;4.80;;
66402;SDS011;53212;52.112;5.144;2022-08-30T02:21:00;6.30;;;4.30;;
66402;SDS011;53212;52.112;5.144;2022-08-30T02:23:29;6.00;;;4.80;;
66402;SDS011;53212;52.112;5.144;2022-08-30T02:25:55;6.10;;;4.80;;
66402;SDS011;53212;52.112;5.144;2022-08-30T02:28:26;7.10;;;5.10;;
66402;SDS011;53212;52.112;5.144;2022-08-30T02:33:21;5.90;;;5.20;;
66402;SDS011;53212;52.112;5.144;2022-08-30T02:35:47;9.60;;;5.70;;
66402;SDS011;53212;52.112;5.144;2022-08-30T02:38:40;7.00;;;5.30;;
66402;SDS011;53212;52.112;5.144;2022-08-30T02:41:06;7.30;;;5.30;;
66402;SDS011;53212;52.112;5.144;2022-08-30T02:43:31;6.60;;;5.50;;
66402;SDS011;53212;52.112;5.144;2022-08-30T02:45:57;6.90;;;5.40;;
66402;SDS011;53212;52.112;5.144;2022-08-30T02:48:23;11.60;;;5.90;;
66402;SDS011;53212;52.112;5.144;2022-08-30T02:50:50;8.70;;;5.60;;
66402;SDS011;53212;52.112;5.144;2022-08-30T02:53:17;6.30;;;5.60;;
66402;SDS011;53212;52.112;5.144;2022-08-30T02:55:45;8.50;;;5.60;;
66402;SDS011;53212;52.112;5.144;2022-08-30T02:58:11;6.70;;;6.00;;
66402;SDS011;53212;52.112;5.144;2022-08-30T03:00:38;6.40;;;5.80;;
66402;SDS011;53212;52.112;5.144;2022-08-30T03:03:07;6.80;;;6.10;;
66402;SDS011;53212;52.112;5.144;2022-08-30T03:05:33;6.40;;;5.80;;
66402;SDS011;53212;52.112;5.144;2022-08-30T03:07:59;7.80;;;5.80;;
66402;SDS011;53212;52.112;5.144;2022-08-30T03:10:26;8.40;;;5.90;;
66402;SDS011;53212;52.112;5.144;2022-08-30T03:12:53;7.40;;;6.60;;
66402;SDS011;53212;52.112;5.144;2022-08-30T03:15:19;7.30;;;6.00;;
66402;SDS011;53212;52.112;5.144;2022-08-30T03:17:49;5.90;;;5.30;;
66402;SDS011;53212;52.112;5.144;2022-08-30T03:20:16;7.00;;;6.30;;
66402;SDS011;53212;52.112;5.144;2022-08-30T03:22:42;6.00;;;5.40;;
66402;SDS011;53212;52.112;5.144;2022-08-30T03:25:08;8.80;;;6.50;;
66402;SDS011;53212;52.112;5.144;2022-08-30T03:27:33;9.30;;;5.90;;
66402;SDS011;53212;52.112;5.144;2022-08-30T03:29:59;6.50;;;5.90;;
66402;SDS011;53212;52.112;5.144;2022-08-30T03:32:25;7.00;;;6.40;;
66402;SDS011;53212;52.112;5.144;2022-08-30T03:34:50;6.30;;;5.80;;
66402;SDS011;53212;52.112;5.144;2022-08-30T03:37:16;6.40;;;5.80;;
66402;SDS011;53212;52.112;5.144;2022-08-30T03:39:42;7.80;;;5.80;;
66402;SDS011;53212;52.112;5.144;2022-08-30T03:42:09;6.70;;;5.70;;
66402;SDS011;53212;52.112;5.144;2022-08-30T03:44:35;7.50;;;6.20;;
66402;SDS011;53212;52.112;5.144;2022-08-30T03:47:02;9.60;;;6.80;;
66402;SDS011;53212;52.112;5.144;2022-08-30T03:49:28;9.60;;;6.50;;
66402;SDS011;53212;52.112;5.144;2022-08-30T03:51:54;8.20;;;5.90;;
66402;SDS011;53212;52.112;5.144;2022-08-30T03:54:19;8.80;;;6.40;;
66402;SDS011;53212;52.112;5.144;2022-08-30T03:56:45;7.90;;;6.40;;
66402;SDS011;53212;52.112;5.144;2022-08-30T03:59:11;7.00;;;6.30;;
66402;SDS011;53212;52.112;5.144;2022-08-30T04:01:36;6.90;;;6.00;;
66402;SDS011;53212;52.112;5.144;2022-08-30T04:04:02;9.20;;;6.70;;
66402;SDS011;53212;52.112;5.144;2022-08-30T04:06:28;7.60;;;6.40;;
66402;SDS011;53212;52.112;5.144;2022-08-30T04:08:53;12.10;;;6.20;;
66402;SDS011;53212;52.112;5.144;2022-08-30T04:11:19;11.90;;;6.70;;
66402;SDS011;53212;52.112;5.144;2022-08-30T04:13:46;8.70;;;6.40;;
66402;SDS011;53212;52.112;5.144;2022-08-30T04:16:14;7.00;;;6.30;;
66402;SDS011;53212;52.112;5.144;2022-08-30T04:18:39;7.20;;;6.50;;
66402;SDS011;53212;52.112;5.144;2022-08-30T04:21:05;13.60;;;7.40;;
66402;SDS011;53212;52.112;5.144;2022-08-30T04:23:31;7.30;;;6.40;;
66402;SDS011;53212;52.112;5.144;2022-08-30T04:25:57;7.80;;;6.60;;
66402;SDS011;53212;52.112;5.144;2022-08-30T04:28:23;7.70;;;6.50;;
66402;SDS011;53212;52.112;5.144;2022-08-30T04:30:49;7.30;;;6.30;;
66402;SDS011;53212;52.112;5.144;2022-08-30T04:33:16;8.30;;;7.20;;
66402;SDS011;53212;52.112;5.144;2022-08-30T04:35:43;9.20;;;7.10;;
66402;SDS011;53212;52.112;5.144;2022-08-30T04:38:11;11.40;;;7.20;;
66402;SDS011;53212;52.112;5.144;2022-08-30T04:40:40;8.80;;;6.80;;
66402;SDS011;53212;52.112;5.144;2022-08-30T04:43:11;7.80;;;6.90;;
66402;SDS011;53212;52.112;5.144;2022-08-30T04:45:40;9.30;;;7.20;;
66402;SDS011;53212;52.112;5.144;2022-08-30T04:48:06;8.30;;;7.30;;
66402;SDS011;53212;52.112;5.144;2022-08-30T04:50:33;11.20;;;7.00;;
66402;SDS011;53212;52.112;5.144;2022-08-30T04:52:58;7.80;;;6.80;;
66402;SDS011;53212;52.112;5.144;2022-08-30T04:55:24;8.00;;;6.50;;
66402;SDS011;53212;52.112;5.144;2022-08-30T04:57:51;8.10;;;6.70;;
66402;SDS011;53212;52.112;5.144;2022-08-30T05:00:18;8.30;;;6.20;;
66402;SDS011;53212;52.112;5.144;2022-08-30T05:02:45;9.20;;;6.60;;
66402;SDS011;53212;52.112;5.144;2022-08-30T05:05:11;7.80;;;7.00;;
66402;SDS011;53212;52.112;5.144;2022-08-30T05:07:56;6.90;;;6.20;;
66402;SDS011;53212;52.112;5.144;2022-08-30T05:10:22;9.40;;;6.80;;
66402;SDS011;53212;52.112;5.144;2022-08-30T05:15:51;9.70;;;7.30;;
66402;SDS011;53212;52.112;5.144;2022-08-30T05:18:17;9.60;;;6.90;;
66402;SDS011;53212;52.112;5.144;2022-08-30T05:20:43;7.00;;;6.30;;
66402;SDS011;53212;52.112;5.144;2022-08-30T05:23:08;7.90;;;6.60;;
66402;SDS011;53212;52.112;5.144;2022-08-30T05:25:37;8.60;;;5.70;;
66402;SDS011;53212;52.112;5.144;2022-08-30T05:31:34;7.30;;;6.50;;
66402;SDS011;53212;52.112;5.144;2022-08-30T05:34:01;8.00;;;6.30;;
66402;SDS011;53212;52.112;5.144;2022-08-30T05:36:29;8.20;;;5.90;;
66402;SDS011;53212;52.112;5.144;2022-08-30T05:38:58;7.00;;;5.70;;
66402;SDS011;53212;52.112;5.144;2022-08-30T05:41:25;7.70;;;6.30;;
66402;SDS011;53212;52.112;5.144;2022-08-30T05:43:52;9.00;;;6.80;;
66402;SDS011;53212;52.112;5.144;2022-08-30T05:46:23;8.20;;;5.50;;
66402;SDS011;53212;52.112;5.144;2022-08-30T05:48:49;6.80;;;5.90;;
66402;SDS011;53212;52.112;5.144;2022-08-30T05:51:18;6.00;;;5.30;;
66402;SDS011;53212;52.112;5.144;2022-08-30T05:53:46;7.60;;;5.40;;
66402;SDS011;53212;52.112;5.144;2022-08-30T05:56:16;5.90;;;5.40;;
66402;SDS011;53212;52.112;5.144;2022-08-30T05:58:44;6.30;;;5.10;;
66402;SDS011;53212;52.112;5.144;2022-08-30T06:03:49;5.20;;;4.70;;
66402;SDS011;53212;52.112;5.144;2022-08-30T06:06:14;5.30;;;4.60;;
66402;SDS011;53212;52.112;5.144;2022-08-30T06:08:41;8.60;;;4.60;;
66402;SDS011;53212;52.112;5.144;2022-08-30T06:11:10;5.10;;;4.60;;
66402;SDS011;53212;52.112;5.144;2022-08-30T06:13:38;5.20;;;4.70;;
66402;SDS011;53212;52.112;5.144;2022-08-30T06:16:04;6.20;;;4.50;;
66402;SDS011;53212;52.112;5.144;2022-08-30T06:18:29;5.50;;;4.70;;
66402;SDS011;53212;52.112;5.144;2022-08-30T06:20:56;6.10;;;4.10;;
66402;SDS011;53212;52.112;5.144;2022-08-30T06:23:25;5.10;;;3.80;;
66402;SDS011;53212;52.112;5.144;2022-08-30T06:25:50;5.00;;;3.70;;
66402;SDS011;53212;52.112;5.144;2022-08-30T06:28:16;5.30;;;4.40;;
66402;SDS011;53212;52.112;5.144;2022-08-30T06:30:42;6.50;;;4.10;;
66402;SDS011;53212;52.112;5.144;2022-08-30T06:33:09;4.40;;;3.70;;
66402;SDS011;53212;52.112;5.144;2022-08-30T06:35:35;5.70;;;3.90;;
66402;SDS011;53212;52.112;5.144;2022-08-30T06:38:01;4.10;;;3.80;;
66402;SDS011;53212;52.112;5.144;2022-08-30T06:40:28;4.00;;;3.60;;
66402;SDS011;53212;52.112;5.144;2022-08-30T06:42:54;4.50;;;4.10;;
66402;SDS011;53212;52.112;5.144;2022-08-30T06:45:19;4.40;;;3.90;;
66402;SDS011;53212;52.112;5.144;2022-08-30T06:47:46;7.10;;;3.70;;
66402;SDS011;53212;52.112;5.144;2022-08-30T06:50:13;7.10;;;3.40;;
66402;SDS011;53212;52.112;5.144;2022-08-30T06:52:42;4.90;;;3.40;;
66402;SDS011;53212;52.112;5.144;2022-08-30T06:55:10;5.90;;;3.40;;
66402;SDS011;53212;52.112;5.144;2022-08-30T06:57:37;3.40;;;3.10;;
66402;SDS011;53212;52.112;5.144;2022-08-30T07:00:07;5.80;;;3.30;;
66402;SDS011;53212;52.112;5.144;2022-08-30T07:02:37;3.90;;;3.60;;
66402;SDS011;53212;52.112;5.144;2022-08-30T07:05:04;5.60;;;3.50;;
66402;SDS011;53212;52.112;5.144;2022-08-30T07:07:32;3.10;;;2.70;;
66402;SDS011;53212;52.112;5.144;2022-08-30T07:10:02;3.40;;;2.80;;
66402;SDS011;53212;52.112;5.144;2022-08-30T07:12:31;3.30;;;2.60;;
66402;SDS011;53212;52.112;5.144;2022-08-30T07:14:56;4.20;;;2.60;;
66402;SDS011;53212;52.112;5.144;2022-08-30T07:17:22;7.00;;;2.40;;
66402;SDS011;53212;52.112;5.144;2022-08-30T07:20:08;2.20;;;2.00;;
66402;SDS011;53212;52.112;5.144;2022-08-30T07:22:34;2.10;;;1.90;;
66402;SDS011;53212;52.112;5.144;2022-08-30T07:25:00;5.00;;;2.70;;
66402;SDS011;53212;52.112;5.144;2022-08-30T07:27:26;2.70;;;2.10;;
66402;SDS011;53212;52.112;5.144;2022-08-30T07:29:51;2.70;;;2.20;;
66402;SDS011;53212;52.112;5.144;2022-08-30T07:32:17;3.60;;;2.20;;
66402;SDS011;53212;52.112;5.144;2022-08-30T07:34:43;2.70;;;1.80;;
66402;SDS011;53212;52.112;5.144;2022-08-30T07:37:08;3.00;;;2.00;;
66402;SDS011;53212;52.112;5.144;2022-08-30T07:39:37;3.20;;;1.80;;
66402;SDS011;53212;52.112;5.144;2022-08-30T07:42:02;5.10;;;1.70;;
66402;SDS011;53212;52.112;5.144;2022-08-30T07:44:28;2.10;;;1.70;;
66402;SDS011;53212;52.112;5.144;2022-08-30T07:46:53;4.00;;;2.10;;
66402;SDS011;53212;52.112;5.144;2022-08-30T07:49:19;2.80;;;2.00;;
66402;SDS011;53212;52.112;5.144;2022-08-30T07:51:45;3.70;;;2.10;;
66402;SDS011;53212;52.112;5.144;2022-08-30T07:54:10;3.90;;;1.80;;
66402;SDS011;53212;52.112;5.144;2022-08-30T07:56:36;4.70;;;1.70;;
66402;SDS011;53212;52.112;5.144;2022-08-30T07:59:02;2.40;;;1.40;;
66402;SDS011;53212;52.112;5.144;2022-08-30T08:01:28;2.60;;;1.10;;
66402;SDS011;53212;52.112;5.144;2022-08-30T08:03:54;5.00;;;1.50;;
66402;SDS011;53212;52.112;5.144;2022-08-30T08:06:20;2.30;;;1.10;;
66402;SDS011;53212;52.112;5.144;2022-08-30T08:08:47;1.70;;;1.00;;
66402;SDS011;53212;52.112;5.144;2022-08-30T08:11:22;3.60;;;1.40;;
66402;SDS011;53212;52.112;5.144;2022-08-30T08:13:49;3.40;;;0.80;;
66402;SDS011;53212;52.112;5.144;2022-08-30T08:16:16;1.70;;;1.00;;
66402;SDS011;53212;52.112;5.144;2022-08-30T08:18:42;1.50;;;1.00;;
66402;SDS011;53212;52.112;5.144;2022-08-30T08:21:08;2.30;;;1.10;;
66402;SDS011;53212;52.112;5.144;2022-08-30T08:23:33;4.00;;;1.10;;
66402;SDS011;53212;52.112;5.144;2022-08-30T08:25:59;4.60;;;1.00;;
66402;SDS011;53212;52.112;5.144;2022-08-30T08:28:25;2.90;;;1.00;;
66402;SDS011;53212;52.112;5.144;2022-08-30T08:30:50;4.20;;;1.50;;
66402;SDS011;53212;52.112;5.144;2022-08-30T08:33:17;2.20;;;1.20;;
66402;SDS011;53212;52.112;5.144;2022-08-30T08:35:44;2.40;;;0.90;;
66402;SDS011;53212;52.112;5.144;2022-08-30T08:38:10;4.10;;;1.00;;
66402;SDS011;53212;52.112;5.144;2022-08-30T08:40:53;2.80;;;0.90;;
66402;SDS011;53212;52.112;5.144;2022-08-30T08:43:26;1.70;;;1.10;;
66402;SDS011;53212;52.112;5.144;2022-08-30T08:46:05;2.20;;;1.10;;
66402;SDS011;53212;52.112;5.144;2022-08-30T08:51:03;2.10;;;1.00;;
66402;SDS011;53212;52.112;5.144;2022-08-30T08:53:55;1.20;;;0.90;;
66402;SDS011;53212;52.112;5.144;2022-08-30T08:56:25;5.30;;;1.20;;
66402;SDS011;53212;52.112;5.144;2022-08-30T08:59:11;3.00;;;1.10;;
66402;SDS011;53212;52.112;5.144;2022-08-30T09:01:53;1.20;;;1.10;;
66402;SDS011;53212;52.112;5.144;2022-08-30T09:04:55;3.80;;;1.10;;
66402;SDS011;53212;52.112;5.144;2022-08-30T09:07:26;3.60;;;1.10;;
66402;SDS011;53212;52.112;5.144;2022-08-30T09:09:57;1.10;;;1.00;;
66402;SDS011;53212;52.112;5.144;2022-08-30T09:12:24;1.80;;;0.90;;
66402;SDS011;53212;52.112;5.144;2022-08-30T09:14:53;2.20;;;1.00;;
66402;SDS011;53212;52.112;5.144;2022-08-30T09:17:25;2.10;;;1.10;;
66402;SDS011;53212;52.112;5.144;2022-08-30T09:25:19;1.80;;;1.10;;
66402;SDS011;53212;52.112;5.144;2022-08-30T09:27:49;2.20;;;1.00;;
66402;SDS011;53212;52.112;5.144;2022-08-30T09:32:49;0.90;;;0.80;;
66402;SDS011;53212;52.112;5.144;2022-08-30T09:35:32;2.00;;;1.10;;
66402;SDS011;53212;52.112;5.144;2022-08-30T09:38:23;2.20;;;1.20;;
66402;SDS011;53212;52.112;5.144;2022-08-30T09:40:56;1.20;;;1.00;;
66402;SDS011;53212;52.112;5.144;2022-08-30T09:43:26;3.60;;;1.20;;
66402;SDS011;53212;52.112;5.144;2022-08-30T10:08:26;1.60;;;1.10;;
66402;SDS011;53212;52.112;5.144;2022-08-30T10:10:50;1.10;;;1.00;;
66402;SDS011;53212;52.112;5.144;2022-08-30T10:13:37;4.20;;;1.20;;
66402;SDS011;53212;52.112;5.144;2022-08-30T10:21:59;2.00;;;1.00;;
66402;SDS011;53212;52.112;5.144;2022-08-30T10:24:42;3.20;;;1.20;;
66402;SDS011;53212;52.112;5.144;2022-08-30T10:27:19;2.70;;;1.10;;
66402;SDS011;53212;52.112;5.144;2022-08-30T10:29:59;2.80;;;1.20;;
66402;SDS011;53212;52.112;5.144;2022-08-30T10:32:50;1.60;;;0.90;;
66402;SDS011;53212;52.112;5.144;2022-08-30T10:35:29;2.00;;;1.30;;
66402;SDS011;53212;52.112;5.144;2022-08-30T10:38:07;2.30;;;1.10;;
66402;SDS011;53212;52.112;5.144;2022-08-30T10:41:12;1.20;;;1.00;;
66402;SDS011;53212;52.112;5.144;2022-08-30T10:47:09;4.30;;;1.30;;
66402;SDS011;53212;52.112;5.144;2022-08-30T10:49:27;4.00;;;1.10;;
66402;SDS011;53212;52.112;5.144;2022-08-30T10:52:49;2.40;;;1.10;;
66402;SDS011;53212;52.112;5.144;2022-08-30T10:55:21;2.20;;;1.20;;
66402;SDS011;53212;52.112;5.144;2022-08-30T10:57:50;3.50;;;1.40;;
66402;SDS011;53212;52.112;5.144;2022-08-30T11:00:28;5.20;;;1.20;;
66402;SDS011;53212;52.112;5.144;2022-08-30T11:06:24;5.40;;;1.40;;
66402;SDS011;53212;52.112;5.144;2022-08-30T11:15:17;1.80;;;1.20;;
66402;SDS011;53212;52.112;5.144;2022-08-30T11:17:53;2.70;;;1.40;;
66402;SDS011;53212;52.112;5.144;2022-08-30T11:20:49;1.70;;;1.00;;
66402;SDS011;53212;52.112;5.144;2022-08-30T11:25:53;3.30;;;1.20;;
66402;SDS011;53212;52.112;5.144;2022-08-30T11:36:10;1.70;;;1.40;;
66402;SDS011;53212;52.112;5.144;2022-08-30T11:41:37;5.00;;;1.30;;
66402;SDS011;53212;52.112;5.144;2022-08-30T11:44:29;2.40;;;1.20;;
66402;SDS011;53212;52.112;5.144;2022-08-30T11:46:59;1.80;;;1.30;;
66402;SDS011;53212;52.112;5.144;2022-08-30T11:49:35;2.20;;;1.30;;
66402;SDS011;53212;52.112;5.144;2022-08-30T11:57:43;2.20;;;1.30;;
66402;SDS011;53212;52.112;5.144;2022-08-30T12:00:33;2.10;;;1.00;;
66402;SDS011;53212;52.112;5.144;2022-08-30T12:03:49;4.50;;;1.40;;
66402;SDS011;53212;52.112;5.144;2022-08-30T12:06:03;1.90;;;1.40;;
66402;SDS011;53212;52.112;5.144;2022-08-30T12:11:00;2.00;;;1.30;;
66402;SDS011;53212;52.112;5.144;2022-08-30T12:16:33;2.90;;;1.40;;
66402;SDS011;53212;52.112;5.144;2022-08-30T12:19:30;1.80;;;1.30;;
66402;SDS011;53212;52.112;5.144;2022-08-30T12:22:02;3.00;;;1.50;;
66402;SDS011;53212;52.112;5.144;2022-08-30T12:24:38;11.50;;;5.40;;
66402;SDS011;53212;52.112;5.144;2022-08-30T12:27:40;2.80;;;2.10;;
66402;SDS011;53212;52.112;5.144;2022-08-30T12:30:07;3.50;;;1.40;;
66402;SDS011;53212;52.112;5.144;2022-08-30T12:32:41;3.00;;;1.10;;
66402;SDS011;53212;52.112;5.144;2022-08-30T12:35:21;3.40;;;1.20;;
66402;SDS011;53212;52.112;5.144;2022-08-30T12:38:01;3.30;;;1.40;;
66402;SDS011;53212;52.112;5.144;2022-08-30T12:40:31;1.30;;;1.20;;
66402;SDS011;53212;52.112;5.144;2022-08-30T12:43:04;2.30;;;1.30;;
66402;SDS011;53212;52.112;5.144;2022-08-30T12:45:45;3.70;;;1.40;;
66402;SDS011;53212;52.112;5.144;2022-08-30T12:48:16;3.40;;;1.40;;
66402;SDS011;53212;52.112;5.144;2022-08-30T12:50:55;2.30;;;1.50;;
66402;SDS011;53212;52.112;5.144;2022-08-30T12:55:57;2.10;;;1.30;;
66402;SDS011;53212;52.112;5.144;2022-08-30T12:58:45;1.20;;;1.00;;
66402;SDS011;53212;52.112;5.144;2022-08-30T13:01:27;1.70;;;1.00;;
66402;SDS011;53212;52.112;5.144;2022-08-30T13:10:16;2.60;;;1.10;;
66402;SDS011;53212;52.112;5.144;2022-08-30T13:13:05;1.30;;;1.20;;
66402;SDS011;53212;52.112;5.144;2022-08-30T13:15:40;2.10;;;1.10;;
66402;SDS011;53212;52.112;5.144;2022-08-30T13:18:27;1.30;;;1.10;;
66402;SDS011;53212;52.112;5.144;2022-08-30T13:23:55;2.10;;;1.40;;
66402;SDS011;53212;52.112;5.144;2022-08-30T13:26:35;2.70;;;1.20;;
66402;SDS011;53212;52.112;5.144;2022-08-30T13:29:04;4.70;;;1.40;;
66402;SDS011;53212;52.112;5.144;2022-08-30T13:31:33;3.20;;;1.20;;
66402;SDS011;53212;52.112;5.144;2022-08-30T13:34:01;1.50;;;1.10;;
66402;SDS011;53212;52.112;5.144;2022-08-30T13:36:32;1.50;;;1.20;;
66402;SDS011;53212;52.112;5.144;2022-08-30T13:39:03;3.10;;;1.40;;
66402;SDS011;53212;52.112;5.144;2022-08-30T13:41:31;2.00;;;1.30;;
66402;SDS011;53212;52.112;5.144;2022-08-30T13:43:57;2.00;;;1.40;;
66402;SDS011;53212;52.112;5.144;2022-08-30T13:46:25;3.70;;;1.10;;
66402;SDS011;53212;52.112;5.144;2022-08-30T13:48:56;2.30;;;1.20;;
66402;SDS011;53212;52.112;5.144;2022-08-30T13:51:33;1.60;;;1.00;;
66402;SDS011;53212;52.112;5.144;2022-08-30T13:53:59;1.50;;;1.10;;
66402;SDS011;53212;52.112;5.144;2022-08-30T13:56:29;3.50;;;1.40;;
66402;SDS011;53212;52.112;5.144;2022-08-30T13:58:59;2.80;;;1.20;;
66402;SDS011;53212;52.112;5.144;2022-08-30T14:01:31;4.50;;;1.50;;
66402;SDS011;53212;52.112;5.144;2022-08-30T14:03:57;2.40;;;1.30;;
66402;SDS011;53212;52.112;5.144;2022-08-30T14:06:23;2.00;;;1.40;;
66402;SDS011;53212;52.112;5.144;2022-08-30T14:08:48;2.60;;;1.10;;
66402;SDS011;53212;52.112;5.144;2022-08-30T14:11:16;1.40;;;1.20;;
66402;SDS011;53212;52.112;5.144;2022-08-30T14:13:43;2.90;;;1.30;;
66402;SDS011;53212;52.112;5.144;2022-08-30T14:16:11;1.80;;;1.00;;
66402;SDS011;53212;52.112;5.144;2022-08-30T14:18:36;2.70;;;1.00;;
66402;SDS011;53212;52.112;5.144;2022-08-30T14:21:02;2.00;;;1.20;;
66402;SDS011;53212;52.112;5.144;2022-08-30T14:23:28;3.50;;;1.30;;
66402;SDS011;53212;52.112;5.144;2022-08-30T14:25:56;1.40;;;1.10;;
66402;SDS011;53212;52.112;5.144;2022-08-30T14:28:24;2.30;;;1.40;;
66402;SDS011;53212;52.112;5.144;2022-08-30T14:30:53;4.60;;;1.20;;
66402;SDS011;53212;52.112;5.144;2022-08-30T14:33:18;2.00;;;1.30;;
66402;SDS011;53212;52.112;5.144;2022-08-30T14:35:44;1.30;;;1.10;;
66402;SDS011;53212;52.112;5.144;2022-08-30T14:38:10;4.40;;;1.40;;
66402;SDS011;53212;52.112;5.144;2022-08-30T14:40:35;5.00;;;1.10;;
66402;SDS011;53212;52.112;5.144;2022-08-30T14:43:01;3.90;;;1.40;;
66402;SDS011;53212;52.112;5.144;2022-08-30T14:45:27;1.50;;;1.10;;
66402;SDS011;53212;52.112;5.144;2022-08-30T14:47:52;1.50;;;0.80;;
66402;SDS011;53212;52.112;5.144;2022-08-30T14:50:21;3.30;;;1.20;;
66402;SDS011;53212;52.112;5.144;2022-08-30T14:52:47;2.90;;;1.30;;
66402;SDS011;53212;52.112;5.144;2022-08-30T14:55:15;1.80;;;0.90;;
66402;SDS011;53212;52.112;5.144;2022-08-30T14:57:42;4.40;;;1.20;;
66402;SDS011;53212;52.112;5.144;2022-08-30T15:00:09;3.80;;;1.30;;
66402;SDS011;53212;52.112;5.144;2022-08-30T15:02:36;2.30;;;1.30;;
66402;SDS011;53212;52.112;5.144;2022-08-30T15:05:02;2.50;;;1.20;;
66402;SDS011;53212;52.112;5.144;2022-08-30T15:07:28;3.70;;;1.60;;
66402;SDS011;53212;52.112;5.144;2022-08-30T15:09:54;1.60;;;1.30;;
66402;SDS011;53212;52.112;5.144;2022-08-30T15:12:19;2.10;;;1.70;;
66402;SDS011;53212;52.112;5.144;2022-08-30T15:14:46;3.70;;;1.20;;
66402;SDS011;53212;52.112;5.144;2022-08-30T15:17:11;4.20;;;1.40;;
66402;SDS011;53212;52.112;5.144;2022-08-30T15:19:37;2.70;;;1.20;;
66402;SDS011;53212;52.112;5.144;2022-08-30T15:22:04;4.20;;;1.20;;
66402;SDS011;53212;52.112;5.144;2022-08-30T15:24:32;1.80;;;1.10;;
66402;SDS011;53212;52.112;5.144;2022-08-30T15:26:59;1.60;;;1.20;;
66402;SDS011;53212;52.112;5.144;2022-08-30T15:29:25;4.70;;;1.30;;
66402;SDS011;53212;52.112;5.144;2022-08-30T15:31:52;1.40;;;1.10;;
66402;SDS011;53212;52.112;5.144;2022-08-30T15:34:21;3.30;;;1.20;;
66402;SDS011;53212;52.112;5.144;2022-08-30T15:36:49;2.60;;;1.50;;
66402;SDS011;53212;52.112;5.144;2022-08-30T15:39:15;3.40;;;1.20;;
66402;SDS011;53212;52.112;5.144;2022-08-30T15:41:42;3.10;;;1.70;;
66402;SDS011;53212;52.112;5.144;2022-08-30T15:44:09;3.40;;;1.10;;
66402;SDS011;53212;52.112;5.144;2022-08-30T15:50:13;3.40;;;1.20;;
66402;SDS011;53212;52.112;5.144;2022-08-30T15:52:40;3.30;;;1.20;;
66402;SDS011;53212;52.112;5.144;2022-08-30T15:55:06;3.90;;;1.20;;
66402;SDS011;53212;52.112;5.144;2022-08-30T15:57:33;2.00;;;0.80;;
66402;SDS011;53212;52.112;5.144;2022-08-30T15:59:59;2.60;;;1.10;;
66402;SDS011;53212;52.112;5.144;2022-08-30T16:02:24;2.50;;;1.00;;
66402;SDS011;53212;52.112;5.144;2022-08-30T16:08:12;1.40;;;1.10;;
66402;SDS011;53212;52.112;5.144;2022-08-30T16:10:38;2.40;;;1.20;;
66402;SDS011;53212;52.112;5.144;2022-08-30T16:13:04;1.40;;;1.00;;
66402;SDS011;53212;52.112;5.144;2022-08-30T16:15:30;2.90;;;1.10;;
66402;SDS011;53212;52.112;5.144;2022-08-30T16:17:56;1.50;;;1.30;;
66402;SDS011;53212;52.112;5.144;2022-08-30T16:20:22;1.30;;;1.00;;
66402;SDS011;53212;52.112;5.144;2022-08-30T16:22:47;3.90;;;1.00;;
66402;SDS011;53212;52.112;5.144;2022-08-30T16:25:13;1.40;;;1.00;;
66402;SDS011;53212;52.112;5.144;2022-08-30T16:27:41;1.00;;;0.90;;
66402;SDS011;53212;52.112;5.144;2022-08-30T16:30:10;1.70;;;1.00;;
66402;SDS011;53212;52.112;5.144;2022-08-30T16:32:36;1.70;;;1.20;;
66402;SDS011;53212;52.112;5.144;2022-08-30T16:35:03;3.30;;;1.00;;
66402;SDS011;53212;52.112;5.144;2022-08-30T16:37:30;3.50;;;1.00;;
66402;SDS011;53212;52.112;5.144;2022-08-30T16:39:56;2.10;;;1.20;;
66402;SDS011;53212;52.112;5.144;2022-08-30T16:42:22;0.80;;;0.80;;
66402;SDS011;53212;52.112;5.144;2022-08-30T16:44:50;2.30;;;1.10;;
66402;SDS011;53212;52.112;5.144;2022-08-30T16:47:16;2.30;;;1.20;;
66402;SDS011;53212;52.112;5.144;2022-08-30T16:49:41;0.90;;;0.90;;